Time;durP1;ratioP1;P1;durP2;ratioP2;P2;SDS_P1;SDS_P2;PMS_P1;PMS_P2;Temp;Humidity;BMP_temperature;BMP_pressure;BME280_temperature;BME280_humidity;BME280_pressure;Samples;Min_cycle;Max_cycle;Signal;HPM_P1;HPM_P2
2021/01/15 00:01:47;;;;;;;4.28;2.65;;;22.50;38.50;;;;;;5186623;28;20057;-81
2021/01/15 00:04:18;;;;;;;5.53;2.92;;;22.50;38.50;;;;;;5186461;28;20456;-80
2021/01/15 00:06:48;;;;;;;4.50;2.90;;;22.50;38.80;;;;;;5186437;28;20034;-81
2021/01/15 00:09:19;;;;;;;3.72;2.88;;;22.50;38.70;;;;;;5186462;28;20057;-80
2021/01/15 00:11:49;;;;;;;3.80;2.88;;;22.50;38.70;;;;;;5170475;28;20034;-80
2021/01/15 00:14:20;;;;;;;3.63;3.10;;;22.50;38.60;;;;;;5186609;28;20113;-80
2021/01/15 00:16:54;;;;;;;4.75;3.20;;;22.60;39.00;;;;;;5170440;28;20113;-81
2021/01/15 00:19:24;;;;;;;4.65;2.97;;;22.60;38.40;;;;;;5186085;28;20064;-81
2021/01/15 00:21:54;;;;;;;4.20;3.08;;;22.60;38.90;;;;;;5187118;28;20021;-81
2021/01/15 00:24:25;;;;;;;3.40;2.80;;;22.60;38.30;;;;;;5186229;28;20040;-80
2021/01/15 00:26:55;;;;;;;3.83;2.83;;;22.60;38.30;;;;;;5170582;28;20025;-81
2021/01/15 00:29:27;;;;;;;3.67;2.97;;;22.70;37.90;;;;;;5170050;28;20081;-82
2021/01/15 00:31:57;;;;;;;4.78;2.97;;;22.60;38.40;;;;;;5170736;28;20037;-81
2021/01/15 00:34:28;;;;;;;7.70;3.25;;;22.70;38.50;;;;;;5186371;28;20117;-80
2021/01/15 00:36:58;;;;;;;7.57;3.15;;;22.70;38.00;;;;;;5189342;28;20075;-83
2021/01/15 00:39:29;;;;;;;3.78;2.90;;;22.70;38.00;;;;;;5190200;28;20494;-83
2021/01/15 00:41:59;;;;;;;3.65;2.83;;;22.70;37.80;;;;;;5173376;28;20022;-82
2021/01/15 00:44:30;;;;;;;4.57;2.75;;;22.70;38.00;;;;;;5188316;28;20409;-81
2021/01/15 00:47:00;;;;;;;4.80;2.80;;;22.70;37.40;;;;;;5188654;28;20026;-82
2021/01/15 00:49:31;;;;;;;4.05;3.10;;;22.80;37.50;;;;;;5171573;28;20514;-81
2021/01/15 00:52:01;;;;;;;4.50;2.95;;;22.70;37.50;;;;;;5172285;28;20022;-82
2021/01/15 00:54:32;;;;;;;6.10;2.95;;;22.80;37.70;;;;;;5185417;28;20033;-81
2021/01/15 00:57:02;;;;;;;4.40;2.80;;;22.80;37.80;;;;;;5188756;28;20026;-82
2021/01/15 00:59:33;;;;;;;5.80;2.72;;;22.70;38.20;;;;;;5186850;28;20116;-81
2021/01/15 01:02:03;;;;;;;7.25;2.95;;;22.70;37.80;;;;;;5187106;28;20026;-82
2021/01/15 01:04:34;;;;;;;3.88;2.88;;;22.70;37.60;;;;;;5188652;28;20026;-81
2021/01/15 01:07:04;;;;;;;5.03;2.65;;;22.70;37.80;;;;;;5188184;28;20398;-82
2021/01/15 01:09:36;;;;;;;7.05;2.83;;;22.70;37.40;;;;;;5186888;28;20072;-82
2021/01/15 01:12:06;;;;;;;5.15;2.83;;;22.70;38.00;;;;;;5170222;28;20022;-81
2021/01/15 01:14:37;;;;;;;5.28;3.00;;;22.70;37.60;;;;;;5186120;28;20026;-81
2021/01/15 01:17:07;;;;;;;4.43;3.17;;;22.70;37.60;;;;;;5186255;28;20041;-80
2021/01/15 01:19:38;;;;;;;4.28;2.78;;;22.70;37.50;;;;;;5184319;28;20026;-80
2021/01/15 01:22:08;;;;;;;4.50;2.58;;;22.70;38.20;;;;;;5186671;28;20118;-81
2021/01/15 01:24:39;;;;;;;2.65;2.45;;;22.70;37.90;;;;;;5169114;28;20137;-81
2021/01/15 01:27:09;;;;;;;3.58;2.60;;;22.70;38.00;;;;;;5185993;28;20077;-80
2021/01/15 01:29:40;;;;;;;9.95;3.22;;;22.70;37.90;;;;;;5186704;28;20034;-81
2021/01/15 01:32:10;;;;;;;4.40;2.83;;;22.80;37.50;;;;;;5184281;28;20026;-81
2021/01/15 01:34:41;;;;;;;3.28;2.90;;;22.70;38.30;;;;;;5168507;28;20079;-81
2021/01/15 01:37:11;;;;;;;3.40;3.08;;;22.70;37.80;;;;;;5185230;28;20030;-81
2021/01/15 01:39:42;;;;;;;4.10;3.08;;;22.80;37.80;;;;;;5184311;28;20038;-79
2021/01/15 01:42:12;;;;;;;3.78;3.00;;;22.80;37.60;;;;;;5184707;28;20549;-81
2021/01/15 01:44:43;;;;;;;4.18;2.65;;;22.80;37.80;;;;;;5184715;28;20037;-81
2021/01/15 01:47:13;;;;;;;4.50;2.80;;;22.90;38.00;;;;;;5184671;28;20034;-81
2021/01/15 01:49:44;;;;;;;5.70;3.05;;;22.80;37.90;;;;;;5167735;28;20038;-81
2021/01/15 01:52:14;;;;;;;3.42;2.88;;;22.80;38.30;;;;;;5168941;28;20502;-81
2021/01/15 01:54:45;;;;;;;4.15;2.80;;;22.80;37.90;;;;;;5184867;28;20041;-81
2021/01/15 01:57:15;;;;;;;5.10;3.03;;;22.80;38.10;;;;;;5185260;28;20505;-81
2021/01/15 01:59:46;;;;;;;3.58;2.92;;;22.70;38.90;;;;;;5184391;28;20121;-80
2021/01/15 02:02:16;;;;;;;3.40;2.55;;;22.70;38.70;;;;;;5184198;28;20042;-78
2021/01/15 02:04:47;;;;;;;4.38;3.10;;;22.70;38.90;;;;;;5184248;28;20026;-80
2021/01/15 02:07:18;;;;;;;4.03;3.17;;;22.70;38.20;;;;;;5169200;28;20058;-79
2021/01/15 02:10:10;;;;;;;3.30;2.90;;;22.70;38.10;;;;;;5184371;28;20034;-80
2021/01/15 02:13:01;;;;;;;4.43;3.20;;;22.70;38.40;;;;;;5185788;28;20033;-79
2021/01/15 02:15:45;;;;;;;3.15;2.85;;;22.90;37.90;;;;;;5167335;28;20498;-79
2021/01/15 02:18:40;;;;;;;3.78;3.00;;;22.80;38.20;;;;;;5183542;28;20495;-78
2021/01/15 02:21:20;;;;;;;3.60;2.90;;;22.80;38.30;;;;;;5185860;28;20566;-79
2021/01/15 02:23:51;;;;;;;3.78;2.90;;;22.90;38.20;;;;;;5183215;28;20139;-80
2021/01/15 02:26:44;;;;;;;3.28;2.78;;;22.90;38.40;;;;;;5172190;28;20050;-79
2021/01/15 02:29:16;;;;;;;4.95;2.97;;;22.80;38.40;;;;;;5148808;28;20032;-80
2021/01/15 02:31:47;;;;;;;3.85;2.88;;;22.90;38.50;;;;;;5180204;28;20042;-79
2021/01/15 02:34:52;;;;;;;3.63;2.30;;;22.80;38.50;;;;;;5165599;28;20038;-80
2021/01/15 02:37:37;;;;;;;2.90;2.60;;;22.90;38.40;;;;;;5179508;28;20030;-80
2021/01/15 02:40:21;;;;;;;4.82;2.75;;;22.90;38.60;;;;;;5162992;28;20034;-80
2021/01/15 02:42:51;;;;;;;3.95;3.03;;;22.90;38.90;;;;;;5166024;28;20056;-80
2021/01/15 02:45:22;;;;;;;4.10;2.67;;;22.80;38.40;;;;;;5150185;28;20022;-78
2021/01/15 02:47:53;;;;;;;3.20;2.70;;;22.90;38.90;;;;;;5183313;28;20034;-78
2021/01/15 02:50:25;;;;;;;2.90;2.60;;;22.90;38.60;;;;;;5183709;28;20026;-80
2021/01/15 02:52:56;;;;;;;2.78;2.20;;;22.90;38.90;;;;;;5183607;28;20494;-78
2021/01/15 02:55:27;;;;;;;4.03;2.65;;;22.80;38.70;;;;;;5169835;28;20491;-80
2021/01/15 02:57:57;;;;;;;4.32;2.80;;;22.90;38.50;;;;;;5183279;28;20030;-81
2021/01/15 03:00:28;;;;;;;3.47;2.70;;;22.90;39.50;;;;;;5184645;28;20062;-80
2021/01/15 03:03:07;;;;;;;3.05;2.47;;;22.80;39.30;;;;;;5186422;28;20038;-80
2021/01/15 03:05:39;;;;;;;2.50;2.30;;;22.90;39.10;;;;;;5187268;28;20033;-80
2021/01/15 03:08:09;;;;;;;2.70;2.28;;;23.00;38.80;;;;;;5169144;28;20034;-78
2021/01/15 03:10:40;;;;;;;4.05;2.22;;;23.00;39.00;;;;;;5184407;28;20053;-79
2021/01/15 03:13:10;;;;;;;2.50;2.00;;;22.90;39.00;;;;;;5168384;28;20589;-80
2021/01/15 03:15:41;;;;;;;3.22;2.30;;;22.90;39.70;;;;;;5167728;28;20038;-80
2021/01/15 03:18:11;;;;;;;2.97;2.08;;;22.90;39.60;;;;;;5184533;28;20033;-78
2021/01/15 03:20:42;;;;;;;5.22;2.20;;;22.80;39.10;;;;;;5186283;28;20497;-80
2021/01/15 03:23:12;;;;;;;3.33;2.10;;;22.90;38.90;;;;;;5185256;28;20038;-79
2021/01/15 03:25:43;;;;;;;3.78;2.17;;;22.90;39.10;;;;;;5181101;28;20034;-78
2021/01/15 03:28:13;;;;;;;3.33;2.20;;;22.90;38.90;;;;;;5183543;28;20033;-78
2021/01/15 03:30:44;;;;;;;4.22;2.40;;;22.90;38.50;;;;;;5167539;28;20030;-80
2021/01/15 03:33:14;;;;;;;3.25;2.25;;;22.90;38.70;;;;;;5183549;28;20030;-80
2021/01/15 03:35:45;;;;;;;7.82;2.08;;;22.80;39.70;;;;;;5183825;28;20026;-79
2021/01/15 03:38:15;;;;;;;2.60;2.20;;;22.90;38.80;;;;;;5183133;28;20035;-80
2021/01/15 03:40:46;;;;;;;5.35;2.75;;;22.90;39.20;;;;;;5182905;28;20045;-77
2021/01/15 03:43:18;;;;;;;2.95;2.38;;;22.90;39.20;;;;;;5169634;28;20038;-79
2021/01/15 03:45:49;;;;;;;2.83;1.88;;;22.90;39.20;;;;;;5170247;28;20030;-80
2021/01/15 03:48:23;;;;;;;2.30;2.10;;;22.90;38.70;;;;;;5186680;28;20058;-80
2021/01/15 03:50:53;;;;;;;2.90;2.20;;;22.90;39.50;;;;;;5187373;28;20022;-81
2021/01/15 03:53:24;;;;;;;3.30;2.00;;;22.90;38.70;;;;;;5170068;28;20117;-78
2021/01/15 03:55:55;;;;;;;2.85;2.10;;;22.90;39.30;;;;;;5182752;28;20027;-79
2021/01/15 03:58:25;;;;;;;4.45;2.28;;;22.90;38.60;;;;;;5169665;28;20046;-79
2021/01/15 04:00:56;;;;;;;5.47;2.20;;;22.80;38.60;;;;;;5186186;28;20403;-80
2021/01/15 04:03:26;;;;;;;2.42;2.10;;;22.80;38.00;;;;;;5186053;28;20042;-80
2021/01/15 04:05:57;;;;;;;2.38;2.08;;;22.90;39.10;;;;;;5170451;28;20026;-78
2021/01/15 04:08:27;;;;;;;3.38;2.20;;;22.90;38.20;;;;;;5169336;28;20033;-78
2021/01/15 04:10:58;;;;;;;2.67;2.00;;;22.80;39.30;;;;;;5170483;28;20033;-80
2021/01/15 04:13:28;;;;;;;3.53;2.03;;;22.70;38.40;;;;;;5169425;28;20085;-79
2021/01/15 04:15:59;;;;;;;2.70;2.20;;;22.90;38.10;;;;;;5186050;28;20642;-79
2021/01/15 04:18:30;;;;;;;2.58;2.05;;;22.90;37.90;;;;;;5185122;28;20038;-79
2021/01/15 04:21:05;;;;;;;2.33;1.90;;;22.90;38.00;;;;;;5169245;28;20100;-78
2021/01/15 04:23:35;;;;;;;2.60;2.20;;;22.90;37.90;;;;;;5168858;28;20057;-79
2021/01/15 04:26:06;;;;;;;3.15;2.20;;;22.90;38.60;;;;;;5183060;28;20030;-79
2021/01/15 04:28:36;;;;;;;3.08;2.00;;;22.90;38.40;;;;;;5185875;28;20034;-78
2021/01/15 04:31:07;;;;;;;2.42;1.90;;;23.00;38.00;;;;;;5185407;28;20458;-79
2021/01/15 04:33:38;;;;;;;2.38;2.10;;;23.00;38.20;;;;;;5184922;28;20133;-79
2021/01/15 04:36:11;;;;;;;2.85;1.90;;;22.90;39.10;;;;;;5185673;28;20026;-78
2021/01/15 04:38:42;;;;;;;2.38;2.10;;;23.00;38.20;;;;;;5185138;28;20533;-78
2021/01/15 04:41:12;;;;;;;4.10;2.00;;;22.90;38.90;;;;;;5186796;28;20030;-80
2021/01/15 04:43:42;;;;;;;2.78;2.10;;;22.90;38.80;;;;;;5185515;28;20121;-80
2021/01/15 04:46:13;;;;;;;2.63;2.10;;;22.80;38.20;;;;;;5169021;28;20034;-80
2021/01/15 04:48:43;;;;;;;3.40;2.08;;;22.80;38.80;;;;;;5169226;28;20026;-80
2021/01/15 04:51:20;;;;;;;2.58;1.85;;;22.90;38.70;;;;;;5169966;28;20025;-80
2021/01/15 04:54:02;;;;;;;2.45;2.03;;;22.90;38.30;;;;;;5169560;28;20049;-78
2021/01/15 04:56:56;;;;;;;2.75;2.13;;;22.90;37.80;;;;;;5185666;28;20083;-80
2021/01/15 04:59:27;;;;;;;2.67;2.00;;;22.90;38.90;;;;;;5184776;28;20033;-78
2021/01/15 05:01:58;;;;;;;4.70;1.80;;;22.80;38.10;;;;;;5185243;28;20469;-79
2021/01/15 05:04:29;;;;;;;3.00;2.17;;;22.70;38.80;;;;;;5168651;28;20048;-79
2021/01/15 05:07:01;;;;;;;2.40;1.83;;;22.70;38.30;;;;;;5185810;28;20434;-79
2021/01/15 05:09:44;;;;;;;7.40;2.10;;;22.80;38.40;;;;;;5184603;28;20099;-78
2021/01/15 05:12:17;;;;;;;2.85;1.83;;;22.70;38.40;;;;;;5185510;28;20025;-79
2021/01/15 05:14:48;;;;;;;2.10;1.90;;;22.70;38.30;;;;;;5184786;28;20034;-79
2021/01/15 05:17:19;;;;;;;5.35;2.13;;;22.80;38.30;;;;;;5168710;28;20034;-79
2021/01/15 05:19:49;;;;;;;3.47;2.10;;;22.80;38.00;;;;;;5168642;28;20037;-79
2021/01/15 05:22:20;;;;;;;3.10;2.20;;;22.90;38.40;;;;;;5170330;28;20483;-80
2021/01/15 05:24:50;;;;;;;2.80;2.08;;;22.90;38.50;;;;;;5185737;28;20041;-81
2021/01/15 05:27:39;;;;;;;2.88;2.20;;;22.80;38.60;;;;;;5186715;28;20438;-80
2021/01/15 05:30:21;;;;;;;3.13;2.10;;;22.80;38.90;;;;;;5185697;28;20056;-80
2021/01/15 05:32:53;;;;;;;3.53;2.00;;;22.80;38.50;;;;;;5170851;28;20029;-79
2021/01/15 05:35:43;;;;;;;3.70;2.30;;;22.80;37.80;;;;;;5186462;28;20057;-78
2021/01/15 05:38:15;;;;;;;2.65;2.00;;;22.80;38.60;;;;;;5169373;28;20045;-77
2021/01/15 05:40:50;;;;;;;2.63;2.08;;;22.80;39.00;;;;;;5186544;28;20021;-78
2021/01/15 05:43:30;;;;;;;;;;;22.80;39.00;;;;;;5170703;28;20125;-80
2021/01/15 05:46:08;;;;;;;2.28;2.08;;;22.80;38.60;;;;;;5187120;28;20394;-80
2021/01/15 05:48:42;;;;;;;2.13;1.83;;;22.80;38.30;;;;;;5185648;28;20092;-80
2021/01/15 05:51:35;;;;;;;2.75;2.28;;;22.70;38.60;;;;;;5186338;28;20040;-80
2021/01/15 05:54:07;;;;;;;2.78;2.42;;;22.70;38.60;;;;;;5186875;28;20044;-79
2021/01/15 05:56:45;;;;;;;7.63;2.40;;;22.80;38.10;;;;;;5185392;28;20026;-83
2021/01/15 05:59:17;;;;;;;20.95;2.78;;;22.70;38.90;;;;;;5185138;28;20100;-80
2021/01/15 06:01:49;;;;;;;3.92;2.20;;;22.50;39.40;;;;;;5167291;28;20036;-80
2021/01/15 06:04:31;;;;;;;7.15;2.42;;;22.30;40.60;;;;;;5166390;28;20033;-78
2021/01/15 06:07:08;;;;;;;18.50;3.00;;;22.10;39.50;;;;;;5182877;28;20550;-77
2021/01/15 06:09:43;;;;;;;7.90;2.90;;;22.10;36.90;;;;;;5181016;28;20494;-79
2021/01/15 06:12:17;;;;;;;8.13;2.80;;;22.00;36.60;;;;;;5187597;28;20379;-77
2021/01/15 06:14:56;;;;;;;4.38;2.65;;;21.90;37.00;;;;;;5182527;28;20037;-77
2021/01/15 06:17:26;;;;;;;8.25;2.65;;;21.90;36.90;;;;;;5167267;28;20503;-77
2021/01/15 06:19:59;;;;;;;4.28;3.15;;;21.80;37.00;;;;;;5182281;28;20057;-77
2021/01/15 06:22:47;;;;;;;4.78;2.83;;;21.70;36.90;;;;;;5182351;28;20080;-77
2021/01/15 06:25:30;;;;;;;3.33;2.80;;;21.70;37.00;;;;;;5182452;28;20029;-78
2021/01/15 06:28:02;;;;;;;4.82;3.40;;;21.60;37.00;;;;;;5182181;28;20403;-77
2021/01/15 06:30:34;;;;;;;5.20;2.83;;;21.60;36.00;;;;;;5181717;28;20038;-77
2021/01/15 06:33:14;;;;;;;4.95;3.25;;;21.50;37.20;;;;;;5165925;28;20030;-77
2021/01/15 06:35:47;;;;;;;4.72;3.30;;;21.50;36.80;;;;;;5167096;28;20022;-77
2021/01/15 06:38:18;;;;;;;4.05;3.25;;;21.50;36.70;;;;;;5165609;28;20037;-77
2021/01/15 06:40:50;;;;;;;3.85;2.83;;;21.50;36.60;;;;;;5166181;28;20079;-77
2021/01/15 06:43:31;;;;;;;4.78;3.08;;;21.40;36.20;;;;;;5165544;28;20045;-77
2021/01/15 06:46:03;;;;;;;3.40;3.10;;;21.40;36.30;;;;;;5182333;28;20030;-77
2021/01/15 06:48:35;;;;;;;4.75;3.08;;;21.40;36.40;;;;;;5165427;28;20061;-78
2021/01/15 06:51:06;;;;;;;4.63;3.28;;;21.40;36.10;;;;;;5166369;28;20030;-78
2021/01/15 06:53:38;;;;;;;3.30;2.83;;;21.40;35.90;;;;;;5165589;28;20041;-78
2021/01/15 06:56:12;;;;;;;4.70;3.00;;;21.30;36.00;;;;;;5166081;28;20534;-78
2021/01/15 06:58:43;;;;;;;4.18;2.97;;;21.30;35.90;;;;;;5165066;28;20042;-78
2021/01/15 07:01:24;;;;;;;4.20;3.20;;;21.30;36.00;;;;;;5149197;28;20053;-77
2021/01/15 07:04:19;;;;;;;6.30;3.03;;;21.30;37.70;;;;;;5165781;28;20042;-77
2021/01/15 07:07:15;;;;;;;4.65;3.08;;;21.30;35.80;;;;;;5183906;28;20026;-77
2021/01/15 07:09:47;;;;;;;4.07;3.30;;;21.30;35.90;;;;;;5181792;28;20033;-76
2021/01/15 07:12:18;;;;;;;3.33;3.03;;;21.30;35.70;;;;;;5182577;28;20029;-77
2021/01/15 07:14:51;;;;;;;4.05;3.35;;;21.30;36.00;;;;;;5165974;28;20038;-77
2021/01/15 07:17:35;;;;;;;7.25;3.20;;;21.30;35.40;;;;;;5168280;28;20062;-77
2021/01/15 07:20:08;;;;;;;3.42;3.13;;;21.10;35.60;;;;;;5169578;28;20030;-77
2021/01/15 07:22:58;;;;;;;5.50;3.38;;;21.30;35.60;;;;;;5169404;28;20029;-77
2021/01/15 07:25:29;;;;;;;7.28;3.30;;;21.20;35.40;;;;;;5182711;28;20387;-78
2021/01/15 07:28:07;;;;;;;4.57;3.00;;;21.30;36.30;;;;;;5166813;28;20081;-79
2021/01/15 07:30:37;;;;;;;7.28;3.00;;;21.40;35.50;;;;;;5188091;28;20052;-77
2021/01/15 07:33:08;;;;;;;4.75;3.10;;;21.60;38.30;;;;;;5153311;28;20026;-76
2021/01/15 07:35:38;;;;;;;4.22;3.70;;;21.60;38.90;;;;;;5180296;28;20044;-77
2021/01/15 07:38:13;;;;;;;3.97;3.65;;;21.30;36.40;;;;;;5184653;28;20022;-77
2021/01/15 07:40:44;;;;;;;6.82;3.47;;;21.00;36.10;;;;;;5169069;28;20117;-78
2021/01/15 07:43:29;;;;;;;8.07;3.42;;;20.60;36.90;;;;;;5169791;28;20045;-79
2021/01/15 07:46:03;;;;;;;5.38;3.40;;;20.60;37.20;;;;;;5172844;28;20072;-78
2021/01/15 07:48:34;;;;;;;4.38;3.58;;;20.70;36.90;;;;;;5150202;28;20117;-77
2021/01/15 07:51:11;;;;;;;4.15;3.40;;;20.70;36.50;;;;;;5159966;28;20161;-78
2021/01/15 07:53:44;;;;;;;5.38;3.70;;;20.60;36.50;;;;;;5184247;28;20041;-78
2021/01/15 07:56:24;;;;;;;4.53;3.95;;;20.40;36.50;;;;;;5169182;28;20021;-77
2021/01/15 07:58:55;;;;;;;4.43;3.78;;;20.30;36.90;;;;;;5170227;28;20095;-77
2021/01/15 08:01:26;;;;;;;4.43;4.03;;;20.40;36.70;;;;;;5167701;28;20121;-76
2021/01/15 08:03:57;;;;;;;4.53;3.70;;;20.30;35.90;;;;;;5168103;28;20037;-79
2021/01/15 08:06:28;;;;;;;4.63;3.58;;;20.20;36.40;;;;;;5176350;28;20026;-77
2021/01/15 08:09:06;;;;;;;4.50;3.95;;;20.10;36.80;;;;;;5190412;28;20042;-80
2021/01/15 08:11:37;;;;;;;4.53;4.07;;;20.10;36.50;;;;;;5166071;28;20025;-80
2021/01/15 08:14:12;;;;;;;4.47;4.07;;;20.00;36.70;;;;;;5172720;28;20132;-79
2021/01/15 08:16:46;;;;;;;5.00;4.10;;;19.90;36.40;;;;;;5190829;28;20433;-81
2021/01/15 08:19:17;;;;;;;5.13;4.63;;;19.80;37.10;;;;;;5171024;28;20046;-79
2021/01/15 08:21:48;;;;;;;4.93;3.80;;;19.70;36.90;;;;;;5147250;28;20026;-81
2021/01/15 08:24:19;;;;;;;4.50;3.88;;;19.70;37.20;;;;;;5169075;28;20439;-77
2021/01/15 08:26:56;;;;;;;4.15;3.72;;;19.80;37.20;;;;;;5164646;28;20057;-77
2021/01/15 08:29:28;;;;;;;4.10;3.70;;;19.70;36.50;;;;;;5179929;28;20081;-75
2021/01/15 08:31:59;;;;;;;6.82;4.10;;;19.70;36.90;;;;;;5167788;28;20065;-77
2021/01/15 08:34:31;;;;;;;4.75;4.13;;;19.70;36.90;;;;;;5163473;28;20102;-78
2021/01/15 08:37:12;;;;;;;4.65;3.92;;;19.70;37.30;;;;;;5159323;28;20443;-78
2021/01/15 08:39:46;;;;;;;5.97;4.10;;;19.70;36.70;;;;;;5190422;28;20041;-78
2021/01/15 08:42:17;;;;;;;4.30;3.90;;;19.70;36.30;;;;;;5166854;28;20180;-78
2021/01/15 08:44:48;;;;;;;5.65;4.55;;;19.70;36.60;;;;;;5178878;28;20553;-78
2021/01/15 08:47:21;;;;;;;4.82;4.32;;;19.60;36.00;;;;;;5177527;28;20509;-77
2021/01/15 08:49:58;;;;;;;5.03;4.43;;;19.30;36.10;;;;;;5167197;28;20106;-79
2021/01/15 08:52:30;;;;;;;4.88;4.32;;;19.20;36.30;;;;;;5179925;28;20500;-78
2021/01/15 08:55:02;;;;;;;6.93;3.88;;;19.10;36.20;;;;;;5170327;28;20394;-77
2021/01/15 08:57:32;;;;;;;5.47;4.53;;;19.10;37.00;;;;;;5153400;28;20018;-77
2021/01/15 09:00:13;;;;;;;5.32;4.05;;;19.30;36.60;;;;;;5169058;28;20022;-77
2021/01/15 09:02:43;;;;;;;6.85;4.40;;;19.30;36.80;;;;;;5167781;28;20101;-77
2021/01/15 09:05:15;;;;;;;7.32;4.22;;;19.40;36.60;;;;;;5181468;28;20030;-77
2021/01/15 09:07:49;;;;;;;8.02;4.57;;;19.40;36.40;;;;;;5156219;28;20053;-77
2021/01/15 09:10:19;;;;;;;4.22;3.75;;;19.40;36.60;;;;;;5183506;28;20026;-77
2021/01/15 09:12:50;;;;;;;5.03;4.35;;;19.50;36.90;;;;;;5167358;28;20482;-78
2021/01/15 09:15:21;;;;;;;4.53;4.13;;;19.50;36.50;;;;;;5184314;28;20033;-76
2021/01/15 09:17:52;;;;;;;4.60;3.80;;;19.60;36.70;;;;;;5182889;28;20033;-77
2021/01/15 09:20:23;;;;;;;6.63;4.10;;;19.60;37.40;;;;;;5173097;28;20494;-76
2021/01/15 09:22:54;;;;;;;5.45;4.07;;;19.50;36.90;;;;;;5167520;28;20076;-78
2021/01/15 09:25:25;;;;;;;5.82;3.97;;;19.50;36.60;;;;;;5167018;28;20088;-78
2021/01/15 09:27:56;;;;;;;14.40;4.30;;;19.50;37.20;;;;;;5167647;28;20026;-77
2021/01/15 09:30:26;;;;;;;4.22;3.60;;;19.60;37.10;;;;;;5175669;28;20034;-77
2021/01/15 09:32:57;;;;;;;5.28;4.63;;;19.50;36.70;;;;;;5179781;28;20118;-78
2021/01/15 09:35:27;;;;;;;24.05;6.95;;;19.50;36.90;;;;;;5185555;28;20065;-78
2021/01/15 09:37:58;;;;;;;26.17;8.40;;;19.50;41.00;;;;;;5166160;28;20030;-76
2021/01/15 09:40:29;;;;;;;16.92;6.25;;;19.40;42.10;;;;;;5196243;28;20034;-79
2021/01/15 09:43:01;;;;;;;16.42;6.35;;;19.40;41.00;;;;;;5174804;28;20126;-78
2021/01/15 09:45:31;;;;;;;16.63;5.85;;;19.30;40.70;;;;;;5162555;28;20461;-77
2021/01/15 09:48:07;;;;;;;11.45;5.63;;;19.20;39.30;;;;;;5143217;28;20022;-78
2021/01/15 09:50:37;;;;;;;10.32;5.72;;;19.20;40.20;;;;;;5183842;28;20026;-78
2021/01/15 09:53:08;;;;;;;21.00;7.03;;;19.20;38.80;;;;;;5166962;28;20037;-78
2021/01/15 09:55:38;;;;;;;28.98;8.10;;;19.30;42.30;;;;;;5146648;28;20483;-77
2021/01/15 09:58:09;;;;;;;77.95;16.42;;;19.30;44.30;;;;;;5183255;28;20445;-77
2021/01/15 10:00:39;;;;;;;41.88;11.77;;;19.30;44.20;;;;;;5182308;28;20093;-76
2021/01/15 10:03:10;;;;;;;26.38;9.20;;;19.40;44.10;;;;;;5182767;23;20026;-77
2021/01/15 10:05:40;;;;;;;27.30;9.73;;;19.40;42.80;;;;;;5181632;28;20056;-77
2021/01/15 10:08:11;;;;;;;23.75;8.75;;;19.40;42.50;;;;;;5199931;28;20030;-77
2021/01/15 10:10:42;;;;;;;24.30;8.75;;;19.40;41.70;;;;;;5184914;28;20032;-78
2021/01/15 10:13:12;;;;;;;24.08;8.60;;;19.40;41.90;;;;;;5169130;28;20026;-78
2021/01/15 10:15:42;;;;;;;20.23;7.90;;;19.40;41.00;;;;;;5151056;28;20036;-78
2021/01/15 10:18:13;;;;;;;23.55;7.80;;;19.40;41.70;;;;;;5169138;28;20490;-77
2021/01/15 10:20:44;;;;;;;20.73;7.82;;;19.30;41.00;;;;;;5168506;28;20037;-77
2021/01/15 10:23:15;;;;;;;21.30;7.10;;;19.40;40.90;;;;;;5184120;28;20044;-77
2021/01/15 10:25:45;;;;;;;14.65;6.78;;;19.30;40.60;;;;;;5185641;28;20034;-78
2021/01/15 10:28:16;;;;;;;13.80;7.13;;;19.40;41.00;;;;;;5168664;28;20164;-76
2021/01/15 10:30:47;;;;;;;16.95;6.78;;;19.50;40.20;;;;;;5185404;28;20105;-77
2021/01/15 10:33:20;;;;;;;14.15;6.75;;;19.50;39.70;;;;;;5184852;28;20057;-77
2021/01/15 10:35:51;;;;;;;13.57;6.88;;;19.40;40.50;;;;;;5167846;28;20022;-77
2021/01/15 10:38:22;;;;;;;15.25;6.43;;;19.40;39.90;;;;;;5148920;28;20034;-77
2021/01/15 10:40:52;;;;;;;12.25;6.30;;;19.40;39.80;;;;;;5174197;28;20055;-77
2021/01/15 10:43:23;;;;;;;14.15;6.35;;;19.20;39.70;;;;;;5182870;28;20040;-76
2021/01/15 10:45:54;;;;;;;10.63;5.43;;;19.10;39.20;;;;;;5183257;28;20038;-77
2021/01/15 10:48:24;;;;;;;13.57;5.97;;;19.00;39.40;;;;;;5165438;28;20040;-76
2021/01/15 10:50:55;;;;;;;10.15;5.57;;;19.00;39.50;;;;;;5198190;28;20411;-76
2021/01/15 10:53:26;;;;;;;12.15;5.28;;;18.90;42.20;;;;;;5184469;28;20061;-76
2021/01/15 10:55:56;;;;;;;9.73;5.15;;;19.10;41.00;;;;;;5182796;28;20032;-76
2021/01/15 10:58:27;;;;;;;11.75;5.75;;;19.20;40.80;;;;;;5163223;28;20033;-76
2021/01/15 11:00:57;;;;;;;12.60;6.15;;;19.30;41.30;;;;;;5182377;28;20049;-77
2021/01/15 11:03:28;;;;;;;9.25;5.22;;;19.30;40.90;;;;;;5184814;28;20038;-77
2021/01/15 11:05:58;;;;;;;8.18;5.45;;;19.30;40.20;;;;;;5187312;28;20030;-77
2021/01/15 11:08:31;;;;;;;6.38;4.60;;;19.30;39.90;;;;;;5167461;28;20061;-77
2021/01/15 11:11:04;;;;;;;9.27;4.97;;;19.50;40.30;;;;;;5184580;28;20029;-77
2021/01/15 11:13:35;;;;;;;8.13;4.60;;;19.40;39.60;;;;;;5167609;28;20046;-77
2021/01/15 11:16:12;;;;;;;8.60;4.95;;;19.40;40.30;;;;;;5184079;28;20092;-77
2021/01/15 11:18:43;;;;;;;11.45;4.28;;;19.50;39.40;;;;;;5167094;28;20049;-77
2021/01/15 11:21:13;;;;;;;7.97;4.57;;;19.60;39.40;;;;;;5168606;28;20022;-77
2021/01/15 11:23:44;;;;;;;7.90;4.53;;;19.60;39.10;;;;;;5182386;28;20084;-75
2021/01/15 11:26:20;;;;;;;7.32;4.63;;;19.50;40.80;;;;;;5182700;28;20022;-75
2021/01/15 11:28:59;;;;;;;7.68;4.28;;;19.60;39.80;;;;;;5165203;28;20058;-75
2021/01/15 11:31:30;;;;;;;7.97;4.47;;;19.50;40.10;;;;;;5181749;28;20046;-75
2021/01/15 11:34:00;;;;;;;6.07;4.47;;;19.50;39.50;;;;;;5169029;28;20376;-75
2021/01/15 11:36:31;;;;;;;5.45;4.00;;;19.70;39.60;;;;;;5156698;28;20037;-75
2021/01/15 11:39:06;;;;;;;5.78;4.25;;;19.90;40.60;;;;;;5163298;28;20034;-75
2021/01/15 11:41:37;;;;;;;5.68;4.03;;;19.90;39.10;;;;;;5162589;28;20044;-75
2021/01/15 11:44:08;;;;;;;6.32;3.78;;;19.90;39.70;;;;;;5147078;28;20050;-75
2021/01/15 11:46:39;;;;;;;6.70;3.60;;;19.90;39.50;;;;;;5144196;28;20082;-75
2021/01/15 11:49:09;;;;;;;6.45;3.90;;;19.80;40.40;;;;;;5169764;28;20113;-75
2021/01/15 11:51:40;;;;;;;7.20;3.70;;;19.90;39.80;;;;;;5165492;28;20036;-76
2021/01/15 11:54:13;;;;;;;5.25;4.13;;;19.90;38.80;;;;;;5181596;28;20034;-75
2021/01/15 11:56:44;;;;;;;4.95;3.65;;;19.80;38.40;;;;;;5166064;28;20033;-75
2021/01/15 11:59:14;;;;;;;6.47;4.15;;;19.60;39.00;;;;;;5160436;28;20447;-75
2021/01/15 12:01:45;;;;;;;4.90;3.85;;;19.60;39.50;;;;;;5169742;28;20046;-74
2021/01/15 12:04:15;;;;;;;5.22;3.40;;;19.60;39.10;;;;;;5172109;28;20052;-73
2021/01/15 12:06:53;;;;;;;3.90;3.40;;;19.60;38.80;;;;;;5179300;28;20076;-74
2021/01/15 12:09:23;;;;;;;6.55;3.85;;;19.50;39.00;;;;;;5156496;28;20030;-76
2021/01/15 12:11:55;;;;;;;5.78;3.92;;;19.50;38.60;;;;;;5183021;28;20030;-75
2021/01/15 12:14:25;;;;;;;5.38;3.60;;;19.50;39.00;;;;;;5164311;28;20042;-75
2021/01/15 12:16:59;;;;;;;5.53;3.70;;;19.40;39.00;;;;;;5161888;28;20045;-75
2021/01/15 12:19:29;;;;;;;6.20;3.70;;;19.40;38.90;;;;;;5161929;28;20068;-76
2021/01/15 12:22:00;;;;;;;4.55;3.35;;;19.40;39.20;;;;;;5185363;28;20245;-75
2021/01/15 12:24:31;;;;;;;5.45;3.47;;;19.50;39.50;;;;;;5196198;28;20098;-74
2021/01/15 12:27:02;;;;;;;5.47;3.70;;;19.40;39.60;;;;;;5187679;28;20131;-75
2021/01/15 12:29:32;;;;;;;6.18;4.00;;;19.30;39.00;;;;;;5178245;28;20030;-75
2021/01/15 12:32:03;;;;;;;6.28;3.40;;;19.10;38.40;;;;;;5184115;28;20034;-75
2021/01/15 12:34:33;;;;;;;4.85;3.63;;;19.10;40.10;;;;;;5178979;28;20405;-75
2021/01/15 12:37:04;;;;;;;4.22;3.15;;;19.20;38.90;;;;;;5168902;28;20487;-75
2021/01/15 12:39:34;;;;;;;6.03;3.55;;;19.20;39.70;;;;;;5159017;28;20097;-76
2021/01/15 12:42:05;;;;;;;3.72;3.30;;;19.30;39.00;;;;;;5178399;28;20728;-76
2021/01/15 12:44:35;;;;;;;3.22;2.92;;;19.30;39.40;;;;;;5184244;28;20038;-75
2021/01/15 12:47:06;;;;;;;3.70;3.13;;;19.40;39.50;;;;;;5167717;28;20099;-76
2021/01/15 12:49:36;;;;;;;4.95;3.22;;;19.30;40.50;;;;;;5183651;28;20037;-76
2021/01/15 12:52:07;;;;;;;4.43;3.15;;;19.30;38.50;;;;;;5184650;28;20041;-75
2021/01/15 12:54:37;;;;;;;5.07;3.38;;;19.40;38.30;;;;;;5167851;28;20434;-76
2021/01/15 12:57:08;;;;;;;4.03;3.35;;;19.30;39.10;;;;;;5184338;28;20088;-75
2021/01/15 12:59:40;;;;;;;4.95;2.97;;;19.30;38.80;;;;;;5183628;28;20123;-76
2021/01/15 13:02:11;;;;;;;3.30;2.90;;;19.30;38.30;;;;;;5167748;28;20121;-75
2021/01/15 13:04:41;;;;;;;4.15;2.95;;;19.20;38.50;;;;;;5183317;28;20121;-75
2021/01/15 13:07:12;;;;;;;4.60;3.10;;;19.30;38.60;;;;;;5183807;28;20022;-76
2021/01/15 13:09:42;;;;;;;3.83;3.10;;;19.30;37.90;;;;;;5167285;28;20030;-76
2021/01/15 13:12:13;;;;;;;3.50;3.13;;;19.20;37.70;;;;;;5170484;28;20037;-76
2021/01/15 13:14:44;;;;;;;4.50;2.80;;;19.00;38.30;;;;;;5151607;28;20041;-75